Time;durP1;ratioP1;P1;durP2;ratioP2;P2;SDS_P1;SDS_P2;PMS_P1;PMS_P2;Temp;Humidity;BMP_temperature;BMP_pressure;BME280_temperature;BME280_humidity;BME280_pressure;Samples;Min_cycle;Max_cycle;Signal;HPM_P1;HPM_P2
2022/06/12 00:01:53;;;;;;;5.53;0.77;;;14.30;99.90;;;;;;4978585;28;20042;-68
2022/06/12 00:04:20;;;;;;;5.78;1.08;;;14.30;99.90;;;;;;4998503;28;20110;-67
2022/06/12 00:06:48;;;;;;;5.78;1.00;;;14.20;99.90;;;;;;4996888;28;20084;-68
2022/06/12 00:09:14;;;;;;;5.38;0.75;;;14.20;99.90;;;;;;4998227;28;20054;-67
2022/06/12 00:11:41;;;;;;;5.22;0.55;;;14.20;99.90;;;;;;4998048;28;20084;-68
2022/06/12 00:14:07;;;;;;;4.55;0.70;;;14.20;99.90;;;;;;4996017;28;20034;-68
2022/06/12 00:16:35;;;;;;;6.85;0.90;;;14.20;99.90;;;;;;4983189;28;20048;-67
2022/06/12 00:19:02;;;;;;;6.25;0.80;;;14.20;99.90;;;;;;4977833;28;20042;-68
2022/06/12 00:21:31;;;;;;;6.85;1.15;;;14.20;99.90;;;;;;4999620;28;20042;-67
2022/06/12 00:24:07;;;;;;;5.97;1.10;;;14.20;99.90;;;;;;4994584;28;20034;-67
2022/06/12 00:26:40;;;;;;;8.13;0.70;;;14.10;99.90;;;;;;5002617;28;20084;-67
2022/06/12 00:29:09;;;;;;;8.27;1.38;;;14.10;99.90;;;;;;4996251;28;20426;-67
2022/06/12 00:31:38;;;;;;;3.03;1.02;;;14.10;99.90;;;;;;4999108;28;20490;-67
2022/06/12 00:34:04;;;;;;;7.90;1.48;;;14.10;99.90;;;;;;4994766;28;20042;-67
2022/06/12 00:36:30;;;;;;;9.25;1.30;;;14.10;99.90;;;;;;4999466;28;20046;-67
2022/06/12 00:38:56;;;;;;;10.90;1.52;;;14.10;99.90;;;;;;4995079;28;20093;-67
2022/06/12 00:41:22;;;;;;;6.85;0.90;;;14.10;99.90;;;;;;4998702;28;20045;-67
2022/06/12 00:43:47;;;;;;;6.55;0.98;;;14.00;99.90;;;;;;4993861;28;20120;-67
2022/06/12 00:46:52;;;;;;;6.10;0.82;;;14.00;99.90;;;;;;4996926;28;20041;-67
2022/06/12 00:49:18;;;;;;;6.55;1.55;;;14.00;99.90;;;;;;4979766;28;20138;-67
2022/06/12 00:51:47;;;;;;;2.90;0.60;;;14.00;99.90;;;;;;4999089;28;20133;-67
2022/06/12 00:54:13;;;;;;;8.18;1.33;;;14.00;99.90;;;;;;4996813;28;20077;-67
2022/06/12 00:56:47;;;;;;;10.45;1.67;;;14.00;99.90;;;;;;5001316;28;20119;-68
2022/06/12 00:59:26;;;;;;;7.35;1.38;;;14.00;99.90;;;;;;4981503;28;20449;-67
2022/06/12 01:01:53;;;;;;;4.15;1.17;;;14.00;99.90;;;;;;4994837;28;20189;-67
2022/06/12 01:07:08;;;;;;;7.75;0.88;;;13.90;99.90;;;;;;4995015;28;20057;-67
2022/06/12 01:09:39;;;;;;;7.70;1.25;;;13.90;99.90;;;;;;4998634;28;20034;-67
2022/06/12 01:12:08;;;;;;;3.33;0.60;;;13.90;99.90;;;;;;4996200;28;20038;-67
2022/06/12 01:14:43;;;;;;;7.07;1.02;;;13.90;99.90;;;;;;4997370;28;20477;-67
2022/06/12 01:17:10;;;;;;;10.98;1.20;;;13.90;99.90;;;;;;4996175;28;20054;-67
2022/06/12 01:19:40;;;;;;;7.50;1.42;;;13.90;99.90;;;;;;4997666;28;20026;-67
2022/06/12 01:22:18;;;;;;;6.53;1.55;;;13.90;99.90;;;;;;4996274;28;20031;-67
2022/06/12 01:25:08;;;;;;;9.57;1.23;;;13.90;99.90;;;;;;4998990;28;20041;-67
2022/06/12 01:27:45;;;;;;;12.00;2.10;;;13.90;99.90;;;;;;4995470;28;20537;-67
2022/06/12 01:30:15;;;;;;;8.07;1.20;;;13.80;99.90;;;;;;4978470;28;20749;-67
2022/06/12 01:32:58;;;;;;;7.83;1.60;;;13.90;99.90;;;;;;4996299;28;20050;-67
2022/06/12 01:35:51;;;;;;;7.78;0.88;;;13.90;99.90;;;;;;4995118;28;20066;-67
2022/06/12 01:38:25;;;;;;;9.20;0.90;;;13.90;99.90;;;;;;4980068;28;20538;-67
2022/06/12 01:40:59;;;;;;;10.00;2.08;;;13.90;99.90;;;;;;4994418;28;20034;-67
2022/06/12 01:43:48;;;;;;;6.55;1.02;;;13.80;99.90;;;;;;4994957;28;20129;-67
2022/06/12 01:46:27;;;;;;;3.05;0.63;;;13.80;99.90;;;;;;4998409;28;20038;-67
2022/06/12 01:49:08;;;;;;;5.38;1.17;;;13.80;99.90;;;;;;4976295;28;20121;-67
2022/06/12 01:51:52;;;;;;;9.73;2.15;;;13.80;99.90;;;;;;4996585;28;20058;-67
2022/06/12 01:54:24;;;;;;;6.75;0.93;;;13.80;99.90;;;;;;4977020;28;20050;-67
2022/06/12 01:57:08;;;;;;;9.45;1.17;;;13.70;99.90;;;;;;4999187;28;20513;-67
2022/06/12 01:59:46;;;;;;;8.93;1.08;;;13.70;99.90;;;;;;4995260;28;20039;-67
2022/06/12 02:02:18;;;;;;;8.05;1.27;;;13.70;99.90;;;;;;4980829;28;20497;-67
2022/06/12 02:04:59;;;;;;;7.53;1.05;;;13.70;99.90;;;;;;4982460;28;20128;-67
2022/06/12 02:07:30;;;;;;;3.85;0.90;;;13.70;99.90;;;;;;4998886;28;20038;-67
2022/06/12 02:10:20;;;;;;;9.30;1.08;;;13.70;99.90;;;;;;5000319;28;20585;-67
2022/06/12 02:13:11;;;;;;;8.50;1.50;;;13.70;99.90;;;;;;4982767;28;20041;-67
2022/06/12 02:16:03;;;;;;;7.47;1.33;;;13.60;99.90;;;;;;5005620;28;20045;-67
2022/06/12 02:18:51;;;;;;;9.75;1.98;;;13.60;99.90;;;;;;4997049;28;20034;-67
2022/06/12 02:21:16;;;;;;;8.38;1.67;;;13.60;99.90;;;;;;4998337;28;20136;-67
2022/06/12 02:24:24;;;;;;;7.78;1.27;;;13.60;99.90;;;;;;4999842;28;20554;-67
2022/06/12 02:27:13;;;;;;;14.45;2.10;;;13.60;99.90;;;;;;4985184;28;20052;-67
2022/06/12 02:29:45;;;;;;;7.22;1.45;;;13.60;99.90;;;;;;4999728;28;20048;-67
2022/06/12 02:32:16;;;;;;;12.18;2.22;;;13.60;99.90;;;;;;4998692;28;20041;-67
2022/06/12 02:34:47;;;;;;;12.65;2.20;;;13.60;99.90;;;;;;4999710;28;20522;-67
2022/06/12 02:37:19;;;;;;;9.60;2.55;;;13.50;99.90;;;;;;4998170;28;20038;-67
2022/06/12 02:39:51;;;;;;;9.50;1.52;;;13.60;99.90;;;;;;5000089;28;20034;-67
2022/06/12 02:42:23;;;;;;;7.50;1.70;;;13.50;99.90;;;;;;4997503;28;20120;-67
2022/06/12 02:45:18;;;;;;;9.60;2.25;;;13.50;99.90;;;;;;5000263;28;20501;-67
2022/06/12 02:47:46;;;;;;;8.75;1.48;;;13.40;99.90;;;;;;4982480;28;20447;-67
2022/06/12 02:50:15;;;;;;;10.32;1.80;;;13.40;99.90;;;;;;5000524;28;20022;-67
2022/06/12 02:53:02;;;;;;;5.57;1.48;;;13.40;99.90;;;;;;4997320;28;20589;-67
2022/06/12 02:55:54;;;;;;;9.13;1.63;;;13.40;99.90;;;;;;4997504;28;20049;-67
2022/06/12 02:58:23;;;;;;;10.10;2.47;;;13.40;99.90;;;;;;4999563;28;20494;-67
2022/06/12 03:00:57;;;;;;;8.40;1.75;;;13.40;99.90;;;;;;4996336;28;20046;-67
2022/06/12 03:03:34;;;;;;;16.20;2.60;;;13.40;99.90;;;;;;5000235;28;20057;-67
2022/06/12 03:06:00;;;;;;;14.63;1.75;;;13.30;99.90;;;;;;4981260;28;20102;-67
2022/06/12 03:08:40;;;;;;;8.88;1.75;;;13.30;99.90;;;;;;4984724;28;20120;-67
2022/06/12 03:11:19;;;;;;;7.78;1.58;;;13.30;99.90;;;;;;4982573;28;20049;-67
2022/06/12 03:13:47;;;;;;;7.30;1.75;;;13.30;99.90;;;;;;5001599;28;20033;-68
2022/06/12 03:16:20;;;;;;;12.48;2.42;;;13.30;99.90;;;;;;5001312;28;20042;-67
2022/06/12 03:19:04;;;;;;;6.63;1.50;;;13.30;99.90;;;;;;4997833;28;20529;-67
2022/06/12 03:21:33;;;;;;;9.82;2.70;;;13.30;99.90;;;;;;4981694;28;20054;-67
2022/06/12 03:24:23;;;;;;;12.07;2.15;;;13.30;99.90;;;;;;4983481;28;20046;-67
2022/06/12 03:27:26;;;;;;;10.27;2.35;;;13.30;99.90;;;;;;5008371;28;20497;-69
2022/06/12 03:29:55;;;;;;;16.85;2.17;;;13.30;99.90;;;;;;4987981;28;20274;-68
2022/06/12 03:32:23;;;;;;;14.93;2.50;;;13.30;99.90;;;;;;5021698;28;20029;-68
2022/06/12 03:35:12;;;;;;;10.15;1.92;;;13.30;99.90;;;;;;5022088;28;20046;-68
2022/06/12 03:38:01;;;;;;;10.32;1.95;;;13.20;99.90;;;;;;5010406;28;20041;-67
2022/06/12 03:40:33;;;;;;;10.05;1.73;;;13.30;99.90;;;;;;5018930;28;20081;-68
2022/06/12 03:43:11;;;;;;;14.55;1.88;;;13.30;99.90;;;;;;5007199;28;20060;-67
2022/06/12 03:46:01;;;;;;;8.50;1.85;;;13.30;99.90;;;;;;4993710;28;20034;-68
2022/06/12 03:48:27;;;;;;;17.95;2.20;;;13.30;99.90;;;;;;5021562;28;20026;-67
2022/06/12 03:50:53;;;;;;;16.05;2.55;;;13.30;99.90;;;;;;5003759;28;20556;-67
2022/06/12 03:53:24;;;;;;;6.57;1.40;;;13.30;99.90;;;;;;4999966;28;20042;-67
2022/06/12 03:59:10;;;;;;;12.43;2.65;;;13.30;99.90;;;;;;5000986;28;20045;-67
2022/06/12 04:01:37;;;;;;;12.52;1.85;;;13.30;99.90;;;;;;4998903;28;20035;-67
2022/06/12 04:04:04;;;;;;;9.57;2.30;;;13.30;99.90;;;;;;5007176;28;20121;-67
2022/06/12 04:06:31;;;;;;;14.05;1.83;;;13.30;99.90;;;;;;4997284;28;20416;-67
2022/06/12 04:09:04;;;;;;;11.27;1.65;;;13.30;99.90;;;;;;4997618;28;20112;-67
2022/06/12 04:11:34;;;;;;;10.50;2.40;;;13.30;99.90;;;;;;4997946;28;20042;-66
2022/06/12 04:14:04;;;;;;;13.63;2.05;;;13.30;99.90;;;;;;4996567;28;20038;-67
2022/06/12 04:16:35;;;;;;;9.43;2.20;;;13.30;99.90;;;;;;4980249;28;20046;-67
2022/06/12 04:19:04;;;;;;;16.83;2.10;;;13.30;99.90;;;;;;4996326;28;20497;-67
2022/06/12 04:21:38;;;;;;;8.57;1.80;;;13.30;99.90;;;;;;5001308;28;20050;-67
2022/06/12 04:24:20;;;;;;;12.63;1.80;;;13.30;99.90;;;;;;4979094;28;20092;-67
2022/06/12 04:26:55;;;;;;;9.40;1.60;;;13.40;99.90;;;;;;4982140;28;20101;-67
2022/06/12 04:29:27;;;;;;;9.65;2.05;;;13.40;99.90;;;;;;4981014;28;20465;-67
2022/06/12 04:31:56;;;;;;;9.32;2.38;;;13.40;99.90;;;;;;4978239;28;20117;-67
2022/06/12 04:34:40;;;;;;;10.13;1.92;;;13.40;99.90;;;;;;4979858;28;20072;-67
2022/06/12 04:37:19;;;;;;;11.20;1.38;;;13.40;99.90;;;;;;4998142;28;20045;-67
2022/06/12 04:39:45;;;;;;;28.90;1.63;;;13.50;99.90;;;;;;4994808;28;20034;-67
2022/06/12 04:42:14;;;;;;;7.00;1.55;;;13.50;99.90;;;;;;4994586;28;20776;-67
2022/06/12 04:44:40;;;;;;;6.47;1.60;;;13.50;99.90;;;;;;4998711;28;20049;-67
2022/06/12 04:47:07;;;;;;;14.02;1.75;;;13.60;99.90;;;;;;4995749;28;20022;-67
2022/06/12 04:49:35;;;;;;;12.45;2.78;;;13.60;99.90;;;;;;4998090;28;20033;-67
2022/06/12 04:52:03;;;;;;;6.57;1.88;;;13.60;99.90;;;;;;4995427;28;20105;-67
2022/06/12 04:54:30;;;;;;;8.65;1.80;;;13.60;99.90;;;;;;4999345;28;20042;-67
2022/06/12 04:56:57;;;;;;;10.90;1.98;;;13.70;99.90;;;;;;4995212;28;20128;-67
2022/06/12 04:59:22;;;;;;;10.75;2.35;;;13.80;99.90;;;;;;4981721;28;20076;-68
2022/06/12 05:01:49;;;;;;;10.18;2.25;;;13.80;99.90;;;;;;4997510;28;20053;-67
2022/06/12 05:04:16;;;;;;;12.70;2.47;;;13.80;99.90;;;;;;4999153;28;20034;-67
2022/06/12 05:06:44;;;;;;;8.10;1.85;;;13.90;99.90;;;;;;4994980;28;20042;-67
2022/06/12 05:09:11;;;;;;;12.02;2.47;;;13.90;99.90;;;;;;4980986;28;20472;-68
2022/06/12 05:11:37;;;;;;;14.68;2.55;;;14.00;99.90;;;;;;4998288;28;20034;-67
2022/06/12 05:14:04;;;;;;;14.32;2.55;;;14.00;99.90;;;;;;4994667;28;20137;-67
2022/06/12 05:16:34;;;;;;;11.77;2.08;;;14.10;99.90;;;;;;4997563;28;20050;-67
2022/06/12 05:19:01;;;;;;;11.13;2.20;;;14.10;99.90;;;;;;4995513;28;20038;-67
2022/06/12 05:21:28;;;;;;;12.35;2.55;;;14.20;99.90;;;;;;4997167;28;20093;-67
2022/06/12 05:23:54;;;;;;;12.07;1.98;;;14.30;99.90;;;;;;4995792;28;20037;-67
2022/06/12 05:26:21;;;;;;;7.05;1.95;;;14.30;99.90;;;;;;4983650;28;20048;-67
2022/06/12 05:28:47;;;;;;;13.05;2.47;;;14.50;99.90;;;;;;4996223;28;20035;-67
2022/06/12 05:31:14;;;;;;;12.23;2.45;;;14.60;99.90;;;;;;4998480;28;20447;-67
2022/06/12 05:33:39;;;;;;;13.32;2.47;;;14.60;99.90;;;;;;4977420;28;20035;-67
2022/06/12 05:36:06;;;;;;;7.80;1.67;;;14.70;99.90;;;;;;5001408;28;20080;-67
2022/06/12 05:38:32;;;;;;;14.38;2.20;;;14.90;99.90;;;;;;4999926;28;20046;-67
2022/06/12 05:40:58;;;;;;;13.75;2.30;;;15.20;99.90;;;;;;5000563;28;20105;-67
2022/06/12 05:43:24;;;;;;;8.65;2.00;;;15.50;99.90;;;;;;4983394;28;20030;-67
2022/06/12 05:45:49;;;;;;;12.05;1.90;;;15.80;99.90;;;;;;4999541;28;20046;-68
2022/06/12 05:48:21;;;;;;;8.18;1.63;;;16.20;99.90;;;;;;5001418;28;20037;-67
2022/06/12 05:50:54;;;;;;;10.15;1.67;;;16.50;99.90;;;;;;4999331;28;20133;-67
2022/06/12 05:53:20;;;;;;;20.80;2.60;;;17.00;99.90;;;;;;4982762;28;20064;-67
2022/06/12 05:55:47;;;;;;;9.48;2.03;;;17.30;99.90;;;;;;5006135;28;20046;-67
2022/06/12 05:58:14;;;;;;;8.95;1.52;;;17.70;99.90;;;;;;4979563;28;20434;-67
2022/06/12 06:00:40;;;;;;;9.32;1.92;;;18.10;99.90;;;;;;4983667;28;20401;-67
2022/06/12 06:03:06;;;;;;;6.88;1.88;;;18.50;99.90;;;;;;4999452;28;20096;-67
2022/06/12 06:05:31;;;;;;;12.68;2.22;;;18.80;99.90;;;;;;4980746;28;20061;-67
2022/06/12 06:07:57;;;;;;;8.70;1.95;;;19.00;99.90;;;;;;4999073;28;20327;-68
2022/06/12 06:10:26;;;;;;;7.07;2.83;;;19.10;99.90;;;;;;4999078;28;20080;-68
2022/06/12 06:12:53;;;;;;;11.63;2.28;;;19.20;99.90;;;;;;4998252;28;20058;-67
2022/06/12 06:15:19;;;;;;;11.23;2.50;;;19.30;99.90;;;;;;5000816;28;20550;-67
2022/06/12 06:17:45;;;;;;;10.65;2.38;;;19.40;99.90;;;;;;4981337;28;20049;-68
2022/06/12 06:20:14;;;;;;;10.07;2.75;;;19.40;99.90;;;;;;4983623;28;20120;-68
2022/06/12 06:22:40;;;;;;;11.88;1.92;;;19.30;99.90;;;;;;4979586;28;20038;-67
2022/06/12 06:25:06;;;;;;;9.60;2.38;;;19.30;99.90;;;;;;5002260;28;20030;-68
2022/06/12 06:27:32;;;;;;;8.90;2.00;;;19.30;99.90;;;;;;4999948;28;20031;-68
2022/06/12 06:29:58;;;;;;;7.07;1.67;;;19.40;99.90;;;;;;5001361;28;20030;-68
2022/06/12 06:32:23;;;;;;;9.77;1.92;;;19.50;99.90;;;;;;5000342;28;20371;-68
2022/06/12 06:34:49;;;;;;;9.85;2.00;;;19.80;99.90;;;;;;4998841;28;20145;-68
2022/06/12 06:37:14;;;;;;;10.15;1.52;;;20.10;99.90;;;;;;4999667;28;20038;-67
2022/06/12 06:39:41;;;;;;;7.50;1.60;;;20.40;99.90;;;;;;4997036;28;20100;-67
2022/06/12 06:42:08;;;;;;;8.93;2.50;;;20.50;99.90;;;;;;4999674;28;20038;-67
2022/06/12 06:47:20;;;;;;;10.20;1.83;;;21.50;99.90;;;;;;4997589;28;20126;-67
2022/06/12 06:49:46;;;;;;;7.13;1.45;;;22.10;99.90;;;;;;5002773;28;20105;-67
2022/06/12 06:52:11;;;;;;;4.55;1.55;;;22.40;99.90;;;;;;5002409;28;20210;-67
2022/06/12 06:54:37;;;;;;;7.18;1.55;;;22.40;99.90;;;;;;5006999;28;20057;-66
2022/06/12 06:57:04;;;;;;;6.57;1.75;;;22.40;99.90;;;;;;4999008;28;20088;-67
2022/06/12 06:59:30;;;;;;;5.93;1.80;;;22.70;99.90;;;;;;4997064;28;20054;-67
2022/06/12 07:01:55;;;;;;;7.15;1.30;;;23.20;99.90;;;;;;5000536;28;20052;-67
2022/06/12 07:04:21;;;;;;;4.53;1.25;;;24.00;99.90;;;;;;4998126;28;20058;-66
2022/06/12 07:06:47;;;;;;;6.55;1.63;;;24.70;99.90;;;;;;4998767;28;20430;-67
2022/06/12 07:09:12;;;;;;;6.93;1.75;;;25.20;99.30;;;;;;5000755;28;20053;-67
2022/06/12 07:11:38;;;;;;;5.00;1.67;;;25.60;98.20;;;;;;4997364;28;20081;-67
2022/06/12 07:14:04;;;;;;;6.20;1.65;;;26.50;97.20;;;;;;4998717;28;20029;-67
2022/06/12 07:16:32;;;;;;;8.15;1.85;;;27.60;95.80;;;;;;4995992;28;20042;-68
2022/06/12 07:18:57;;;;;;;5.35;1.55;;;28.40;93.60;;;;;;4977457;28;20112;-68
2022/06/12 07:21:23;;;;;;;4.97;1.73;;;28.90;92.10;;;;;;4997913;28;20037;-67
2022/06/12 07:23:49;;;;;;;7.10;2.15;;;29.20;90.00;;;;;;4995015;28;20038;-67
2022/06/12 07:26:42;;;;;;;7.57;2.17;;;29.40;88.90;;;;;;4982572;28;20039;-68
2022/06/12 07:29:09;;;;;;;7.30;2.10;;;29.70;84.10;;;;;;4993021;28;20081;-67
2022/06/12 07:31:35;;;;;;;6.72;2.00;;;29.90;85.10;;;;;;4996782;28;20446;-67
2022/06/12 07:34:01;;;;;;;7.10;1.95;;;29.50;82.10;;;;;;4994481;28;20041;-67
2022/06/12 07:36:27;;;;;;;3.63;1.40;;;29.70;83.60;;;;;;4997705;28;20034;-67
2022/06/12 07:38:54;;;;;;;7.18;1.77;;;30.00;83.80;;;;;;4995421;28;20042;-67
2022/06/12 07:41:19;;;;;;;8.52;2.28;;;30.50;82.90;;;;;;4997056;28;20041;-68
2022/06/12 07:43:46;;;;;;;8.60;2.20;;;30.90;82.20;;;;;;4987760;28;20435;-67
2022/06/12 07:46:15;;;;;;;6.55;2.22;;;31.00;80.20;;;;;;5001129;28;20044;-68
2022/06/12 07:48:41;;;;;;;6.32;1.67;;;30.70;77.30;;;;;;4999980;28;20088;-68
2022/06/12 07:51:10;;;;;;;5.32;1.77;;;30.50;78.20;;;;;;5000943;28;20193;-67
2022/06/12 07:53:37;;;;;;;10.93;2.25;;;30.90;77.60;;;;;;4998166;28;20404;-68
2022/06/12 07:56:05;;;;;;;9.02;2.33;;;30.80;76.40;;;;;;5004329;28;20489;-67
2022/06/12 07:58:31;;;;;;;6.75;1.70;;;31.20;74.90;;;;;;4998963;28;20050;-67
2022/06/12 08:00:59;;;;;;;6.47;1.67;;;31.40;73.80;;;;;;5001828;28;20029;-67
2022/06/12 08:03:27;;;;;;;6.75;1.77;;;31.50;74.00;;;;;;4998396;28;20034;-68
2022/06/12 08:05:52;;;;;;;6.22;2.00;;;31.20;73.90;;;;;;4997431;28;20120;-67
2022/06/12 08:08:18;;;;;;;8.32;2.28;;;31.00;72.80;;;;;;4997118;28;20073;-67
2022/06/12 08:10:44;;;;;;;6.65;2.35;;;31.10;73.20;;;;;;4996072;28;20042;-68
2022/06/12 08:13:11;;;;;;;6.68;1.92;;;31.30;71.10;;;;;;4998237;28;20916;-67
2022/06/12 08:15:39;;;;;;;5.75;2.05;;;30.80;71.70;;;;;;4997878;28;20498;-68
2022/06/12 08:18:05;;;;;;;8.48;2.00;;;30.50;71.20;;;;;;4994732;28;20120;-67
2022/06/12 08:20:33;;;;;;;3.58;1.52;;;30.10;70.20;;;;;;4998852;28;20509;-67
2022/06/12 08:23:02;;;;;;;4.28;1.45;;;29.30;70.60;;;;;;4993091;28;20162;-68
2022/06/12 08:25:30;;;;;;;7.15;1.73;;;28.60;74.10;;;;;;4999311;28;20406;-68
2022/06/12 08:27:56;;;;;;;4.03;1.10;;;27.90;76.60;;;;;;4997461;28;20080;-67
2022/06/12 08:30:22;;;;;;;4.85;1.17;;;27.50;75.70;;;;;;4994488;28;20042;-67
2022/06/12 08:32:50;;;;;;;5.47;1.50;;;27.10;76.70;;;;;;4979176;28;20037;-68
2022/06/12 08:35:24;;;;;;;3.90;1.30;;;26.90;77.80;;;;;;4995066;28;20049;-67
2022/06/12 08:37:51;;;;;;;4.13;1.15;;;26.50;76.80;;;;;;4995267;28;20057;-67
2022/06/12 08:40:35;;;;;;;7.47;1.60;;;26.20;76.90;;;;;;4996012;28;20049;-67
2022/06/12 08:43:19;;;;;;;5.13;1.35;;;25.90;78.20;;;;;;4993750;28;20042;-67
2022/06/12 08:45:48;;;;;;;4.97;1.02;;;25.40;80.20;;;;;;4978656;28;20046;-68
2022/06/12 08:48:44;;;;;;;8.52;1.40;;;25.50;80.80;;;;;;4977979;28;20128;-67
2022/06/12 08:51:19;;;;;;;7.43;1.40;;;25.30;82.70;;;;;;4980004;28;20065;-67
2022/06/12 08:53:56;;;;;;;3.60;1.08;;;25.20;81.40;;;;;;5003049;28;20088;-67
2022/06/12 08:56:37;;;;;;;7.90;1.10;;;25.30;82.00;;;;;;4980767;28;20456;-67
2022/06/12 08:59:19;;;;;;;5.88;0.95;;;25.30;78.50;;;;;;4993269;28;20142;-67
2022/06/12 09:01:45;;;;;;;4.15;0.65;;;24.80;80.10;;;;;;4995746;28;20545;-67
2022/06/12 09:04:15;;;;;;;3.85;0.70;;;24.50;80.30;;;;;;5001204;28;20037;-67
2022/06/12 09:07:08;;;;;;;4.27;0.80;;;24.50;81.70;;;;;;4978164;28;20069;-67
2022/06/12 09:09:46;;;;;;;3.35;1.00;;;24.50;80.50;;;;;;4987669;28;20277;-67
2022/06/12 09:12:36;;;;;;;3.35;0.98;;;24.60;81.00;;;;;;4999227;28;20096;-67
2022/06/12 09:15:39;;;;;;;6.20;1.52;;;24.60;80.50;;;;;;4997755;28;20034;-67
2022/06/12 09:18:30;;;;;;;3.58;1.10;;;24.60;81.90;;;;;;4988804;28;20038;-67
2022/06/12 09:21:15;;;;;;;4.20;1.10;;;24.60;81.60;;;;;;4997530;28;20073;-67
2022/06/12 09:23:56;;;;;;;6.45;0.95;;;24.60;80.20;;;;;;4999322;28;20125;-69
2022/06/12 09:26:33;;;;;;;5.90;1.40;;;24.60;79.20;;;;;;5005144;28;20034;-67
2022/06/12 09:29:10;;;;;;;2.97;1.00;;;24.30;81.10;;;;;;4997517;28;20026;-67
2022/06/12 09:32:26;;;;;;;5.22;1.40;;;24.20;83.10;;;;;;4983300;28;20445;-67
2022/06/12 09:35:22;;;;;;;5.05;0.88;;;24.20;82.30;;;;;;4946150;28;20038;-68
2022/06/12 09:38:21;;;;;;;3.70;0.77;;;24.30;82.50;;;;;;5000291;28;20030;-67
2022/06/12 09:41:07;;;;;;;3.90;0.98;;;24.20;80.90;;;;;;4998162;28;20150;-70
2022/06/12 09:44:01;;;;;;;8.82;0.70;;;23.80;80.80;;;;;;5013417;28;20497;-67
2022/06/12 09:46:49;;;;;;;3.90;1.08;;;23.60;82.70;;;;;;5000108;28;20038;-67
2022/06/12 09:49:51;;;;;;;10.82;1.73;;;23.80;83.50;;;;;;4999920;28;20030;-67
2022/06/12 09:52:33;;;;;;;2.97;0.70;;;24.20;82.10;;;;;;4982230;28;20108;-67
2022/06/12 09:55:26;;;;;;;2.90;1.13;;;24.40;80.30;;;;;;4997311;28;20038;-68
2022/06/12 09:58:15;;;;;;;14.15;1.55;;;24.40;77.40;;;;;;4996292;28;20026;-68
2022/06/12 10:00:49;;;;;;;3.35;1.13;;;24.20;78.10;;;;;;5001831;28;20037;-67
2022/06/12 10:03:33;;;;;;;7.45;0.80;;;24.20;80.90;;;;;;5004903;28;20037;-67
2022/06/12 10:06:04;;;;;;;4.93;1.17;;;24.30;80.50;;;;;;4996841;28;20506;-67
2022/06/12 10:08:50;;;;;;;3.58;0.80;;;24.30;79.60;;;;;;5000109;28;20030;-66
2022/06/12 10:11:37;;;;;;;7.13;1.40;;;24.30;79.20;;;;;;4999380;28;20038;-66
2022/06/12 10:14:28;;;;;;;6.57;1.02;;;24.20;78.30;;;;;;4997194;28;20117;-66
2022/06/12 10:17:15;;;;;;;5.22;1.25;;;24.00;78.00;;;;;;4998179;28;20045;-67
2022/06/12 10:19:45;;;;;;;4.35;0.60;;;24.00;80.10;;;;;;4999584;28;20043;-67
2022/06/12 10:22:43;;;;;;;5.95;1.20;;;24.10;81.20;;;;;;4995352;28;20045;-67
2022/06/12 10:25:23;;;;;;;4.45;1.15;;;24.20;79.40;;;;;;5016342;28;20029;-66
2022/06/12 10:27:59;;;;;;;2.80;0.65;;;24.10;78.20;;;;;;4979204;28;20041;-66
2022/06/12 10:30:38;;;;;;;3.58;1.00;;;24.10;78.40;;;;;;4997439;28;20121;-67
2022/06/12 10:33:16;;;;;;;5.18;0.90;;;24.20;78.40;;;;;;4995768;28;20030;-68
2022/06/12 10:35:52;;;;;;;1.77;0.52;;;24.20;77.60;;;;;;4997870;28;20048;-68
2022/06/12 10:38:20;;;;;;;4.47;1.00;;;24.30;77.90;;;;;;4999488;28;20022;-67
2022/06/12 10:40:48;;;;;;;1.67;0.32;;;24.30;75.20;;;;;;4997371;28;20037;-67
2022/06/12 10:43:26;;;;;;;2.38;0.60;;;24.40;75.30;;;;;;4998043;28;20058;-67
2022/06/12 10:46:21;;;;;;;2.35;0.68;;;24.30;73.20;;;;;;4995945;28;20038;-69
2022/06/12 10:49:02;;;;;;;3.53;0.52;;;24.30;72.60;;;;;;4993866;28;20092;-68
2022/06/12 10:51:38;;;;;;;2.90;0.95;;;24.30;74.70;;;;;;4997526;28;20042;-67
2022/06/12 10:54:20;;;;;;;3.70;0.68;;;24.50;74.40;;;;;;4979267;28;20037;-67
2022/06/12 10:56:49;;;;;;;4.85;0.75;;;24.50;77.30;;;;;;4996205;28;20038;-67
2022/06/12 10:59:20;;;;;;;2.47;0.60;;;24.50;76.60;;;;;;4999290;28;20502;-67
2022/06/12 11:02:00;;;;;;;1.00;0.47;;;24.50;75.60;;;;;;4998876;28;20039;-68
2022/06/12 11:04:32;;;;;;;2.42;0.85;;;24.60;75.00;;;;;;4996078;28;20518;-68
2022/06/12 11:07:06;;;;;;;4.40;0.57;;;24.70;74.60;;;;;;4998351;28;20042;-68
2022/06/12 11:09:45;;;;;;;3.08;0.50;;;24.80;71.50;;;;;;4997994;28;20042;-68
2022/06/12 11:12:46;;;;;;;3.50;0.70;;;24.60;73.20;;;;;;4994551;28;20079;-68
2022/06/12 11:15:50;;;;;;;2.13;0.52;;;24.60;75.10;;;;;;4997171;28;20053;-68
2022/06/12 11:18:33;;;;;;;2.55;0.82;;;24.70;74.90;;;;;;4954118;28;20582;-66
2022/06/12 11:21:22;;;;;;;4.10;1.10;;;24.80;74.40;;;;;;4993639;28;20099;-69
2022/06/12 11:24:03;;;;;;;4.63;0.80;;;24.80;74.10;;;;;;4995367;28;20031;-67
2022/06/12 11:26:37;;;;;;;2.58;0.88;;;24.80;74.00;;;;;;5003209;28;20033;-67
2022/06/12 11:29:24;;;;;;;3.58;0.73;;;24.60;75.00;;;;;;4996299;28;20035;-70
2022/06/12 11:31:52;;;;;;;2.22;1.00;;;24.50;72.40;;;;;;4995421;28;20042;-69
2022/06/12 11:34:46;;;;;;;8.85;0.98;;;24.50;73.50;;;;;;4995365;28;20038;-68
2022/06/12 11:37:45;;;;;;;3.63;0.80;;;24.50;72.80;;;;;;4997520;28;20049;-66
2022/06/12 11:40:42;;;;;;;3.78;1.10;;;24.50;76.40;;;;;;4997304;28;20049;-68
2022/06/12 11:43:29;;;;;;;5.50;0.63;;;24.80;73.30;;;;;;4997369;28;20066;-68
2022/06/12 11:46:11;;;;;;;4.25;0.60;;;25.00;73.20;;;;;;4995692;28;20434;-68
2022/06/12 11:49:04;;;;;;;2.92;0.60;;;24.80;76.00;;;;;;4996994;28;20402;-68
2022/06/12 11:51:47;;;;;;;3.55;0.68;;;24.90;73.30;;;;;;4985399;28;20037;-68
2022/06/12 11:54:32;;;;;;;4.07;0.55;;;25.00;71.70;;;;;;4997363;28;20077;-68
2022/06/12 11:57:09;;;;;;;6.25;1.15;;;24.80;70.60;;;;;;4996124;28;20105;-68
2022/06/12 11:59:52;;;;;;;2.22;0.80;;;24.80;73.10;;;;;;4997011;28;20486;-68
2022/06/12 12:02:36;;;;;;;4.60;1.27;;;24.90;72.20;;;;;;4994961;28;20104;-68
2022/06/12 12:05:01;;;;;;;3.38;0.38;;;24.70;74.30;;;;;;4994576;28;20042;-69
2022/06/12 12:07:56;;;;;;;1.40;0.75;;;24.40;72.80;;;;;;4980097;28;20060;-68
2022/06/12 12:10:36;;;;;;;3.92;0.60;;;24.20;73.10;;;;;;4953498;28;20517;-68
2022/06/12 12:13:08;;;;;;;3.53;0.85;;;24.00;76.90;;;;;;4994914;28;20129;-67
2022/06/12 12:15:57;;;;;;;16.83;1.13;;;23.80;76.30;;;;;;4996101;28;20041;-68
2022/06/12 12:18:37;;;;;;;6.37;1.17;;;23.50;75.10;;;;;;4994296;28;20126;-68
2022/06/12 12:21:06;;;;;;;3.72;0.98;;;23.40;78.30;;;;;;4995445;28;20057;-67
2022/06/12 12:23:37;;;;;;;3.77;0.87;;;23.60;79.50;;;;;;4996177;28;20525;-67
2022/06/12 12:26:16;;;;;;;5.05;1.00;;;23.70;78.00;;;;;;5000075;28;20658;-68
2022/06/12 12:28:50;;;;;;;2.22;0.73;;;23.70;78.50;;;;;;4980364;28;20033;-70
2022/06/12 12:31:17;;;;;;;5.43;0.85;;;23.60;80.10;;;;;;4993722;28;20045;-68
2022/06/12 12:33:45;;;;;;;3.13;1.20;;;23.60;77.30;;;;;;4997209;28;20044;-68
2022/06/12 12:41:52;;;;;;;3.83;1.00;;;24.10;76.70;;;;;;4994409;28;20037;-68
2022/06/12 12:44:36;;;;;;;2.58;0.68;;;24.20;75.80;;;;;;4975766;28;20042;-68
2022/06/12 12:47:15;;;;;;;4.65;0.80;;;24.40;76.50;;;;;;4995082;28;20042;-68
2022/06/12 12:49:40;;;;;;;7.55;1.27;;;24.40;75.90;;;;;;5000386;28;20045;-67
2022/06/12 12:52:16;;;;;;;2.50;1.00;;;24.40;78.10;;;;;;4980108;28;20549;-67
2022/06/12 12:54:51;;;;;;;6.60;1.00;;;24.50;76.10;;;;;;4992993;28;20456;-70
2022/06/12 12:57:41;;;;;;;7.07;0.98;;;24.40;74.40;;;;;;4995679;28;20049;-67
2022/06/12 13:00:16;;;;;;;;;;;24.40;72.90;;;;;;4996631;28;20113;-67
2022/06/12 13:02:59;;;;;;;6.25;0.82;;;24.40;71.60;;;;;;4994893;28;20120;-66
2022/06/12 13:05:47;;;;;;;2.55;0.50;;;24.20;73.20;;;;;;5000202;28;20034;-68
2022/06/12 13:08:44;;;;;;;2.10;0.50;;;24.30;73.20;;;;;;4967059;28;20050;-68
2022/06/12 13:11:28;;;;;;;7.07;0.93;;;24.20;74.10;;;;;;4997111;28;20038;-68
2022/06/12 13:14:06;;;;;;;1.70;0.38;;;24.20;72.90;;;;;;4992317;28;20605;-68
2022/06/12 13:17:01;;;;;;;4.32;0.70;;;24.20;71.50;;;;;;4995748;28;20520;-68
2022/06/12 13:19:34;;;;;;;2.00;0.57;;;24.30;74.30;;;;;;4987016;28;20037;-68
2022/06/12 13:22:33;;;;;;;4.35;0.63;;;24.10;70.50;;;;;;4994155;28;20133;-68
2022/06/12 13:25:09;;;;;;;2.00;0.40;;;24.20;70.30;;;;;;4997773;28;20037;-68
2022/06/12 13:27:52;;;;;;;1.45;0.40;;;24.00;72.00;;;;;;4994172;28;20331;-68
2022/06/12 13:30:22;;;;;;;3.55;0.22;;;23.90;72.70;;;;;;4992918;28;20031;-68
2022/06/12 13:32:48;;;;;;;2.40;0.60;;;23.80;71.80;;;;;;4995493;28;20075;-68
2022/06/12 13:35:29;;;;;;;0.60;0.10;;;23.90;72.20;;;;;;4992186;28;20046;-66
2022/06/12 13:38:05;;;;;;;2.28;0.32;;;23.80;70.30;;;;;;4992824;28;20033;-68
2022/06/12 13:40:39;;;;;;;5.07;0.50;;;23.70;69.30;;;;;;4996777;28;20030;-68